Time;durP1;ratioP1;P1;durP2;ratioP2;P2;SDS_P1;SDS_P2;PMS_P1;PMS_P2;Temp;Humidity;BMP_temperature;BMP_pressure;BME280_temperature;BME280_humidity;BME280_pressure;Samples;Min_cycle;Max_cycle;Signal;HPM_P1;HPM_P2
2022/06/29 00:01:19;;;;;;;;;8.00;8.00;;;;;28.09;42.38;100993.31;146616;713;45021;-67
2022/06/29 00:04:11;;;;;;;;;8.75;8.50;;;;;28.09;43.47;101003.13;146610;714;46010;-67
2022/06/29 00:07:03;;;;;;;;;7.25;7.00;;;;;28.12;41.97;101013.72;146614;641;46010;-67
2022/06/29 00:09:55;;;;;;;;;8.00;8.00;;;;;28.17;43.00;101027.00;146610;584;46008;-67
2022/06/29 00:12:49;;;;;;;;;6.00;6.00;;;;;28.23;43.72;101037.56;146611;566;46010;-68
2022/06/29 00:15:41;;;;;;;;;8.33;6.67;;;;;28.28;43.91;101054.34;146616;651;45043;-68
2022/06/29 00:18:33;;;;;;;;;7.00;7.00;;;;;28.30;48.73;101063.22;146612;635;46010;-66
2022/06/29 00:21:25;;;;;;;;;4.00;3.33;;;;;28.08;49.27;101050.22;146612;652;46018;-68
2022/06/29 00:24:17;;;;;;;;;5.00;3.33;;;;;27.72;52.78;101013.44;146615;618;46019;-70
2022/06/29 00:27:10;;;;;;;;;6.00;4.67;;;;;27.35;54.29;101025.53;146616;608;47917;-69
2022/06/29 00:30:02;;;;;;;;;5.00;5.00;;;;;27.10;53.04;101010.69;146616;589;46020;-67
2022/06/29 00:32:54;;;;;;;;;4.67;3.67;;;;;26.91;54.33;100994.06;146611;693;46019;-68
2022/06/29 00:35:46;;;;;;;;;4.00;4.00;;;;;26.73;54.40;100981.88;146613;638;46018;-68
2022/06/29 00:38:38;;;;;;;;;4.00;3.33;;;;;26.55;55.58;100982.97;146614;688;45019;-67
2022/06/29 00:41:30;;;;;;;;;4.00;4.00;;;;;26.33;58.37;100992.03;146615;594;46010;-67
2022/06/29 00:44:24;;;;;;;;;6.33;5.33;;;;;26.04;57.54;101017.06;146614;571;46018;-69
2022/06/29 00:47:16;;;;;;;;;3.00;3.00;;;;;25.81;60.40;101003.94;146612;587;46019;-67
2022/06/29 00:50:09;;;;;;;;;5.00;4.00;;;;;25.62;61.46;101007.59;146613;569;46018;-66
2022/06/29 00:53:06;;;;;;;;;3.75;3.75;;;;;25.25;63.16;101013.97;146612;700;46018;-66
2022/06/29 00:56:01;;;;;;;;;6.00;5.00;;;;;24.95;61.04;100998.12;146614;597;46008;-66
2022/06/29 00:59:02;;;;;;;;;6.00;4.75;;;;;24.87;62.00;100983.13;146613;620;46018;-66
2022/06/29 01:01:54;;;;;;;;;4.00;4.00;;;;;24.90;62.03;100990.22;146612;570;46010;-68
2022/06/29 01:04:47;;;;;;;;;6.50;6.50;;;;;24.95;62.12;101004.31;146614;569;46010;-69
2022/06/29 01:07:40;;;;;;;;;4.75;4.75;;;;;25.09;62.13;101014.91;146614;574;46018;-67
2022/06/29 01:10:32;;;;;;;;;4.75;4.75;;;;;25.20;62.30;101012.22;146615;648;45020;-68
2022/06/29 01:13:24;;;;;;;;;3.33;3.33;;;;;25.25;61.21;100997.16;146641;575;45010;-67
2022/06/29 01:16:16;;;;;;;;;5.67;4.00;;;;;25.17;64.13;100985.69;146641;572;45010;-70
2022/06/29 01:19:09;;;;;;;;;4.50;4.50;;;;;24.96;63.25;100976.94;146638;614;45018;-67
2022/06/29 01:22:10;;;;;;;;;6.50;5.25;;;;;24.76;63.91;100966.38;146642;573;45010;-67
2022/06/29 01:25:02;;;;;;;;;4.67;4.00;;;;;24.59;62.62;100947.88;146640;603;45010;-68
2022/06/29 01:27:54;;;;;;;;;3.33;2.67;;;;;24.51;63.93;100943.47;146638;587;45018;-66
2022/06/29 01:30:46;;;;;;;;;4.33;4.33;;;;;24.46;61.81;100938.19;146639;606;45011;-71
2022/06/29 01:33:38;;;;;;;;;6.67;6.67;;;;;24.55;62.49;100942.56;146641;677;45010;-70
2022/06/29 01:36:31;;;;;;;;;4.25;4.25;;;;;24.67;63.10;100934.56;146640;667;45018;-69
2022/06/29 01:39:23;;;;;;;;;5.00;5.00;;;;;24.75;62.81;100932.78;146636;609;45019;-69
2022/06/29 01:42:15;;;;;;;;;5.00;4.00;;;;;24.82;62.98;100937.19;146637;585;45917;-69
2022/06/29 01:45:08;;;;;;;;;5.00;5.00;;;;;24.86;63.17;100941.59;146640;582;45018;-69
2022/06/29 01:48:00;;;;;;;;;5.00;4.00;;;;;24.84;63.05;100943.38;146638;578;45030;-69
2022/06/29 01:50:52;;;;;;;;;5.00;4.67;;;;;24.85;62.68;100960.16;146642;575;45012;-67
2022/06/29 01:53:45;;;;;;;;;5.00;5.00;;;;;24.85;63.16;100962.81;146642;639;45010;-67
2022/06/29 01:56:37;;;;;;;;;5.00;4.00;;;;;24.82;62.91;100970.78;146644;613;45010;-67
2022/06/29 01:59:29;;;;;;;;;6.00;6.00;;;;;24.73;64.97;100968.16;146640;573;45018;-69
2022/06/29 02:02:21;;;;;;;;;5.00;4.33;;;;;24.53;67.07;100973.53;146637;641;46012;-68
2022/06/29 02:05:14;;;;;;;;;4.00;4.00;;;;;24.29;65.14;100959.37;146639;628;45010;-68
2022/06/29 02:08:06;;;;;;;;;6.33;5.67;;;;;24.17;63.88;100962.03;146638;570;45019;-67
2022/06/29 02:10:58;;;;;;;;;6.33;5.67;;;;;24.15;63.64;100959.41;146640;587;46008;-67
2022/06/29 02:13:50;;;;;;;;;5.00;5.00;;;;;24.20;64.75;100959.37;146616;610;46018;-69
2022/06/29 02:16:42;;;;;;;;;5.50;5.25;;;;;24.21;63.49;100958.53;146612;713;46018;-69
2022/06/29 02:19:53;;;;;;;;;4.00;4.00;;;;;24.19;62.98;100965.56;146615;579;46012;-71
2022/06/29 02:22:46;;;;;;;;;3.67;3.67;;;;;24.12;64.25;100958.53;146613;588;46019;-66
2022/06/29 02:25:38;;;;;;;;;4.67;4.67;;;;;24.07;64.67;100968.22;146611;670;46012;-65
2022/06/29 02:28:30;;;;;;;;;5.00;3.33;;;;;24.05;63.95;100957.66;146613;577;46008;-64
2022/06/29 02:34:48;;;;;;;;;5.33;4.67;;;;;24.11;64.03;100956.75;146612;577;46018;-65
2022/06/29 02:37:40;;;;;;;;;6.00;4.00;;;;;24.12;63.09;100948.81;146613;569;46018;-66
2022/06/29 02:40:33;;;;;;;;;6.67;5.67;;;;;24.11;62.88;100955.00;146612;582;46917;-66
2022/06/29 02:43:25;;;;;;;;;4.00;4.00;;;;;24.04;64.06;100947.91;146613;563;46010;-67
2022/06/29 02:46:17;;;;;;;;;3.33;2.33;;;;;23.98;62.60;100962.03;146610;581;47917;-66
2022/06/29 02:49:09;;;;;;;;;6.67;5.67;;;;;23.98;63.35;100959.37;146612;670;46018;-65
2022/06/29 02:52:01;;;;;;;;;4.50;4.50;;;;;24.02;62.16;100964.69;146612;570;46018;-66
2022/06/29 02:54:53;;;;;;;;;5.50;3.50;;;;;24.11;62.24;100955.00;146617;590;45020;-64
2022/06/29 02:57:45;;;;;;;;;5.33;5.00;;;;;24.18;61.01;100951.44;146612;644;46008;-64
2022/06/29 03:00:37;;;;;;;;;5.00;4.33;;;;;24.25;60.77;100952.31;146617;662;46019;-65
2022/06/29 03:03:29;;;;;;;;;6.33;4.67;;;;;24.37;61.32;100944.34;146613;604;46008;-64
2022/06/29 03:06:21;;;;;;;;;7.00;5.00;;;;;24.41;60.75;100942.56;146619;566;46010;-65
2022/06/29 03:09:13;;;;;;;;;4.50;4.50;;;;;24.45;62.00;100936.41;146612;583;46019;-66
2022/06/29 03:12:05;;;;;;;;;5.00;5.00;;;;;24.45;61.63;100949.66;146616;563;47010;-69
2022/06/29 03:14:58;;;;;;;;;7.00;6.33;;;;;24.36;62.44;100947.91;146613;575;46019;-68
2022/06/29 03:17:50;;;;;;;;;5.50;5.50;;;;;24.24;62.83;100942.63;146613;590;46018;-66
2022/06/29 03:20:42;;;;;;;;;5.67;5.00;;;;;24.09;62.73;100953.22;146615;590;46018;-64
2022/06/29 03:23:34;;;;;;;;;5.00;4.67;;;;;23.97;63.82;100960.28;146618;573;46019;-65
2022/06/29 03:26:26;;;;;;;;;6.67;5.00;;;;;23.88;63.57;100954.09;146612;624;46018;-65
2022/06/29 03:29:18;;;;;;;;;7.33;6.67;;;;;23.78;64.19;100955.87;146614;603;46008;-65
2022/06/29 03:32:11;;;;;;;;;6.00;5.00;;;;;23.71;63.62;100956.75;146615;723;46018;-65
2022/06/29 03:35:03;;;;;;;;;4.67;4.67;;;;;23.74;63.10;100956.75;146619;651;46010;-65
2022/06/29 03:37:55;;;;;;;;;5.00;5.00;;;;;23.81;66.18;100958.53;146612;597;46008;-67
2022/06/29 03:40:47;;;;;;;;;8.67;7.67;;;;;23.78;64.62;100955.87;146617;576;46018;-66
2022/06/29 03:43:39;;;;;;;;;4.67;4.33;;;;;23.68;64.28;100951.44;146613;569;46010;-66
2022/06/29 03:46:32;;;;;;;;;7.75;6.00;;;;;23.61;64.62;100954.94;146618;662;46010;-66
2022/06/29 03:49:24;;;;;;;;;7.33;5.33;;;;;23.62;65.58;100957.59;146614;622;46008;-66
2022/06/29 03:52:19;;;;;;;;;6.00;6.00;;;;;23.62;64.59;100957.59;146614;566;46012;-65
2022/06/29 03:55:16;;;;;;;;;6.25;6.25;;;;;23.69;65.14;100959.37;146614;625;46008;-67
2022/06/29 03:58:10;;;;;;;;;4.33;4.33;;;;;23.81;65.22;100963.81;146615;649;46010;-67
2022/06/29 04:01:12;;;;;;;;;6.00;6.00;;;;;23.88;64.26;100954.09;146615;627;46019;-66
2022/06/29 04:04:06;;;;;;;;;5.25;5.25;;;;;23.87;63.00;100952.34;146618;673;46010;-67
2022/06/29 04:06:59;;;;;;;;;6.00;5.25;;;;;23.90;62.68;100957.66;146614;617;46008;-65
2022/06/29 04:09:59;;;;;;;;;8.75;7.00;;;;;23.96;63.02;100965.59;146617;702;46010;-65
2022/06/29 04:12:51;;;;;;;;;7.33;5.33;;;;;23.98;65.17;100964.69;146613;596;46018;-66
2022/06/29 04:15:45;;;;;;;;;5.50;4.50;;;;;23.93;63.46;100978.84;146617;578;45020;-67
2022/06/29 04:18:37;;;;;;;;;5.50;4.75;;;;;23.89;63.44;100974.41;146616;652;45046;-67
2022/06/29 04:21:32;;;;;;;;;5.50;4.75;;;;;23.91;62.70;100973.53;146616;629;46018;-66
2022/06/29 04:24:25;;;;;;;;;6.25;6.25;;;;;24.08;62.41;100976.19;146609;563;46917;-68
2022/06/29 04:27:18;;;;;;;;;5.75;5.00;;;;;24.16;63.64;100978.81;146613;575;46010;-67
2022/06/29 04:30:11;;;;;;;;;6.00;4.67;;;;;24.23;62.24;100979.69;146616;666;46018;-66
2022/06/29 04:33:15;;;;;;;;;5.00;5.00;;;;;24.28;60.54;100975.28;146617;683;46010;-68
2022/06/29 04:36:33;;;;;;;;;6.00;6.00;;;;;24.31;62.22;100972.63;146613;634;46018;-67
2022/06/29 04:39:26;;;;;;;;;6.00;5.00;;;;;24.35;61.49;100979.69;146612;664;46010;-66
2022/06/29 04:42:18;;;;;;;;;5.50;5.50;;;;;24.40;61.43;100973.50;146613;665;46008;-66
2022/06/29 04:48:21;;;;;;;;;5.25;5.00;;;;;24.59;60.84;100974.38;146616;563;46008;-68
2022/06/29 04:51:13;;;;;;;;;6.25;6.25;;;;;24.74;59.36;100964.62;146615;566;45021;-68
2022/06/29 04:54:07;;;;;;;;;9.25;8.50;;;;;24.90;58.91;100969.00;146610;647;46018;-68
2022/06/29 04:56:59;;;;;;;;;8.00;7.25;;;;;25.05;58.72;100960.09;146613;735;46010;-68
2022/06/29 04:59:51;;;;;;;;;9.75;7.25;;;;;25.17;58.08;100959.16;146613;591;45919;-69
2022/06/29 05:02:43;;;;;;;;;8.25;6.00;;;;;25.22;57.28;100962.69;146616;565;46010;-68
2022/06/29 05:05:37;;;;;;;;;6.75;5.75;;;;;25.26;57.26;100960.00;146614;611;46018;-69
2022/06/29 05:08:29;;;;;;;;;7.00;6.75;;;;;25.33;57.38;100960.88;146613;685;46010;-69
2022/06/29 05:11:36;;;;;;;;;7.00;7.00;;;;;24.29;57.06;100779.19;146610;575;46018;-67
2022/06/29 05:14:28;;;;;;;;;6.25;5.50;;;;;25.41;57.19;100968.78;146616;564;46010;-68
2022/06/29 05:17:21;;;;;;;;;7.75;7.25;;;;;25.44;57.20;100974.06;146614;582;46018;-68
2022/06/29 05:20:20;;;;;;;;;5.25;5.25;;;;;25.50;56.79;100980.22;146615;644;46018;-67
2022/06/29 05:23:19;;;;;;;;;6.00;5.67;;;;;25.57;56.53;100989.91;146613;581;46018;-69
2022/06/29 05:26:11;;;;;;;;;7.33;5.33;;;;;25.66;56.36;100990.75;146614;616;46008;-67
2022/06/29 05:29:03;;;;;;;;;5.50;5.50;;;;;25.72;56.52;100990.69;146614;680;46018;-68
2022/06/29 05:31:55;;;;;;;;;7.75;6.75;;;;;25.72;56.28;100988.91;146616;644;45028;-69
2022/06/29 05:34:47;;;;;;;;;6.75;6.75;;;;;25.80;56.06;100991.53;146612;627;46010;-68
2022/06/29 05:37:39;;;;;;;;;6.00;5.00;;;;;25.88;56.06;100979.09;146613;698;46010;-67
2022/06/29 05:40:32;;;;;;;;;8.00;6.33;;;;;25.97;55.29;100979.03;146614;569;46008;-67
2022/06/29 05:43:24;;;;;;;;;6.00;5.67;;;;;26.13;55.08;100994.84;146612;635;46018;-67
2022/06/29 05:46:18;;;;;;;;;5.33;5.33;;;;;26.26;54.45;100989.41;146613;574;45916;-67
2022/06/29 05:49:12;;;;;;;;;5.75;5.75;;;;;26.45;54.63;100989.25;146615;608;46010;-68
2022/06/29 05:52:12;;;;;;;;;5.75;5.00;;;;;26.63;54.15;100993.50;146612;573;46008;-68
2022/06/29 05:55:05;;;;;;;;;4.00;4.00;;;;;26.77;53.76;100985.41;146614;626;46018;-68
2022/06/29 05:57:57;;;;;;;;;4.33;4.00;;;;;26.91;53.33;100986.97;146612;621;46010;-68
2022/06/29 06:00:51;;;;;;;;;5.00;5.00;;;;;26.06;53.36;100834.56;146615;582;46010;-68
2022/06/29 06:03:43;;;;;;;;;6.00;4.00;;;;;27.12;53.30;100993.81;146610;594;46018;-72
2022/06/29 06:06:35;;;;;;;;;2.00;2.00;;;;;27.31;53.54;100986.50;146615;642;46012;-72
2022/06/29 06:09:28;;;;;;;;;7.25;5.50;;;;;27.58;53.64;100981.69;146616;639;46018;-72
2022/06/29 06:12:24;;;;;;;;;6.25;6.00;;;;;27.90;52.86;100983.88;146605;654;46019;-75
2022/06/29 06:15:22;;;;;;;;;7.75;7.25;;;;;28.18;52.20;100996.75;146608;581;46018;-74
2022/06/29 06:18:20;;;;;;;;;7.25;5.00;;;;;28.43;51.31;100987.44;146610;582;46020;-71
2022/06/29 06:21:13;;;;;;;;;7.75;6.00;;;;;28.63;50.22;100987.09;146609;693;46008;-70
2022/06/29 06:24:05;;;;;;;;;7.00;6.25;;;;;28.82;49.31;100984.03;146616;600;46010;-70
2022/06/29 06:26:57;;;;;;;;;8.00;6.33;;;;;28.95;47.44;100986.44;146612;585;46008;-69
2022/06/29 06:29:49;;;;;;;;;6.67;6.67;;;;;29.08;48.31;100987.09;146615;598;46010;-70
2022/06/29 06:32:41;;;;;;;;;9.25;6.50;;;;;29.24;48.52;100991.19;146608;613;46919;-70
2022/06/29 06:35:35;;;;;;;;;6.67;6.67;;;;;29.46;47.80;100988.03;146614;578;46010;-70
2022/06/29 06:38:27;;;;;;;;;7.67;7.67;;;;;29.66;47.50;100984.97;146612;585;46018;-69
2022/06/29 06:41:22;;;;;;;;;8.67;7.00;;;;;29.79;47.63;100982.87;146614;592;46013;-75
2022/06/29 06:44:14;;;;;;;;;6.50;6.50;;;;;29.83;47.98;100989.87;146610;667;46008;-75
2022/06/29 06:47:05;;;;;;;;;7.00;6.00;;;;;29.80;47.67;100981.94;146619;594;45020;-73
2022/06/29 06:49:58;;;;;;;;;7.50;6.75;;;;;28.81;46.33;100819.50;146607;565;46019;-73
2022/06/29 06:52:50;;;;;;;;;6.00;6.00;;;;;29.82;47.63;100988.12;146613;639;45020;-75
2022/06/29 06:55:42;;;;;;;;;7.00;6.00;;;;;29.79;47.22;100996.22;146612;603;46919;-73
2022/06/29 06:58:37;;;;;;;;;7.33;6.00;;;;;29.66;46.92;100991.16;146613;595;46018;-74
2022/06/29 07:01:29;;;;;;;;;5.00;5.00;;;;;29.62;48.12;100983.25;146610;641;46018;-75
2022/06/29 07:04:21;;;;;;;;;6.25;6.25;;;;;29.76;47.37;100980.25;146616;628;46010;-76
2022/06/29 07:07:13;;;;;;;;;8.75;7.50;;;;;29.88;44.96;100986.19;146608;660;46008;-75
2022/06/29 07:10:14;;;;;;;;;3.67;3.67;;;;;30.02;46.58;100975.13;146615;624;45020;-75
2022/06/29 07:13:07;;;;;;;;;5.50;5.50;;;;;30.19;47.00;100985.41;146615;618;46018;-76
2022/06/29 07:15:59;;;;;;;;;8.00;7.00;;;;;30.26;45.00;100978.16;146614;698;46020;-74
2022/06/29 07:18:53;;;;;;;;;5.33;5.33;;;;;30.28;45.50;100978.97;146613;615;46018;-75
2022/06/29 07:21:46;;;;;;;;;5.00;5.00;;;;;30.18;45.88;100977.41;146613;627;46010;-75
2022/06/29 07:24:38;;;;;;;;;6.25;6.00;;;;;30.17;45.70;100973.88;146614;569;46008;-75
2022/06/29 07:27:30;;;;;;;;;6.00;6.00;;;;;30.25;44.72;100974.59;146612;629;46012;-76
2022/06/29 07:30:23;;;;;;;;;7.00;6.00;;;;;30.40;45.24;100967.06;146612;622;46919;-75
2022/06/29 07:33:15;;;;;;;;;8.00;7.00;;;;;30.66;44.33;100982.41;146615;565;46010;-74
2022/06/29 07:36:07;;;;;;;;;8.00;6.00;;;;;30.00;43.83;100847.75;146613;710;46008;-77
2022/06/29 07:38:59;;;;;;;;;7.67;6.33;;;;;30.89;44.19;100979.09;146614;582;46010;-75
2022/06/29 07:41:52;;;;;;;;;7.33;6.33;;;;;31.01;43.59;100979.63;146613;580;46008;-75
2022/06/29 07:44:44;;;;;;;;;5.50;5.50;;;;;31.17;44.43;100972.00;146617;570;46010;-76
2022/06/29 07:47:37;;;;;;;;;4.33;4.00;;;;;31.33;42.95;100974.22;146611;588;46010;-75
2022/06/29 07:50:29;;;;;;;;;5.00;5.00;;;;;31.46;42.93;100971.12;146615;566;46010;-75
2022/06/29 07:53:21;;;;;;;;;7.25;6.00;;;;;31.57;43.11;100964.56;146613;651;46008;-75
2022/06/29 07:56:13;;;;;;;;;7.67;5.33;;;;;31.69;43.29;100959.69;146614;619;46018;-75
2022/06/29 07:59:06;;;;;;;;;6.00;5.50;;;;;31.77;42.15;100962.09;146611;593;46010;-75
2022/06/29 08:02:05;;;;;;;;;7.00;7.00;;;;;31.78;43.27;100962.97;146615;631;46010;-75
2022/06/29 08:05:28;;;;;;;;;8.25;7.75;;;;;31.81;44.21;100978.97;146615;687;46018;-75
2022/06/29 08:08:20;;;;;;;;;9.33;7.33;;;;;31.81;42.34;100952.16;146614;569;46010;-75
2022/06/29 08:11:13;;;;;;;;;8.00;8.00;;;;;31.96;42.27;100962.41;146611;686;46919;-74
2022/06/29 08:14:06;;;;;;;;;8.00;8.00;;;;;32.08;42.02;100958.44;146612;576;46018;-74
2022/06/29 08:17:11;;;;;;;;;9.67;8.67;;;;;32.15;41.47;100955.50;146613;601;45045;-72
2022/06/29 08:20:03;;;;;;;;;7.67;6.33;;;;;32.27;41.22;100967.59;146610;566;46019;-74
2022/06/29 08:22:55;;;;;;;;;7.50;7.50;;;;;32.32;41.83;100954.91;146613;595;46018;-75
2022/06/29 08:25:47;;;;;;;;;7.00;7.00;;;;;32.38;41.46;100957.34;146614;592;46019;-75
2022/06/29 08:28:40;;;;;;;;;7.25;6.50;;;;;32.47;42.04;100963.38;146612;569;46010;-75
2022/06/29 08:31:31;;;;;;;;;6.50;6.50;;;;;32.46;42.24;100959.78;146613;621;46013;-76
2022/06/29 08:34:33;;;;;;;;;6.00;6.00;;;;;32.51;41.11;100949.78;146612;564;46019;-75
2022/06/29 08:37:25;;;;;;;;;7.25;7.25;;;;;32.41;40.70;100921.50;146617;702;45032;-75
2022/06/29 08:40:20;;;;;;;;;6.75;6.75;;;;;32.61;42.67;100942.25;146614;697;46019;-76
2022/06/29 08:43:15;;;;;;;;;8.50;8.50;;;;;32.73;40.59;100946.28;146612;569;46010;-75
2022/06/29 08:46:08;;;;;;;;;11.25;9.75;;;;;32.62;41.86;100917.19;146606;639;46917;-75
2022/06/29 08:49:01;;;;;;;;;8.75;7.50;;;;;32.80;41.22;100940.62;146610;597;46010;-75
2022/06/29 08:51:55;;;;;;;;;9.00;9.00;;;;;32.68;40.07;100946.50;146616;563;46018;-75
2022/06/29 08:54:49;;;;;;;;;9.50;7.50;;;;;32.56;41.80;100936.19;146609;570;46019;-75
2022/06/29 08:57:45;;;;;;;;;9.00;9.00;;;;;32.31;40.78;100936.19;146613;656;46018;-74
2022/06/29 09:00:38;;;;;;;;;6.00;6.00;;;;;32.20;41.44;100940.09;146614;713;46012;-75
2022/06/29 09:03:36;;;;;;;;;8.00;8.00;;;;;32.03;40.01;100936.28;146611;710;46019;-75
2022/06/29 09:10:47;;;;;;;;;12.00;7.50;;;;;31.89;42.63;100936.72;146614;566;46009;-74
2022/06/29 09:13:42;;;;;;;;;7.00;6.50;;;;;31.76;41.05;100933.56;146613;569;46020;-74
2022/06/29 09:17:07;;;;;;;;;8.00;8.00;;;;;31.61;42.48;100942.97;146607;625;46018;-75
2022/06/29 09:20:00;;;;;;;;;9.50;7.50;;;;;31.53;41.32;100937.00;146612;637;46008;-74
2022/06/29 09:22:57;;;;;;;;;11.00;8.50;;;;;31.51;41.79;100938.84;146608;601;47921;-73
2022/06/29 09:26:06;;;;;;;;;7.50;7.50;;;;;31.51;41.81;100934.34;146609;677;46021;-75
2022/06/29 09:29:02;;;;;;;;;7.50;7.50;;;;;31.57;41.57;100943.13;146612;563;46018;-74
2022/06/29 09:32:28;;;;;;;;;8.00;8.00;;;;;30.69;42.18;100771.75;146611;628;46021;-73
2022/06/29 09:35:20;;;;;;;;;8.25;8.25;;;;;31.75;42.10;100930.00;146607;661;46018;-73
2022/06/29 09:38:31;;;;;;;;;7.50;7.00;;;;;31.93;41.15;100931.22;146611;632;46020;-74
2022/06/29 09:41:22;;;;;;;;;6.75;6.00;;;;;32.07;41.16;100925.37;146612;590;46018;-74
2022/06/29 09:44:15;;;;;;;;;9.75;8.00;;;;;32.22;40.46;100923.97;146613;659;46008;-74
2022/06/29 09:47:12;;;;;;;;;6.75;6.75;;;;;32.34;40.58;100928.87;146610;606;46010;-74
2022/06/29 09:50:06;;;;;;;;;6.00;6.00;;;;;32.46;39.76;100921.34;146613;569;46020;-75
2022/06/29 09:52:58;;;;;;;;;6.75;6.75;;;;;32.54;39.44;100927.31;146610;653;46010;-74
2022/06/29 09:55:53;;;;;;;;;0.00;0.00;;;;;32.52;40.14;100929.16;146615;579;46008;-74
2022/06/29 09:58:52;;;;;;;;;7.25;7.25;;;;;32.50;39.95;100928.37;146609;604;46008;-73
2022/06/29 10:04:56;;;;;;;;;7.25;7.25;;;;;32.52;38.54;100926.47;146608;570;46008;-74
2022/06/29 10:07:51;;;;;;;;;8.00;7.00;;;;;32.50;38.85;100929.25;146613;565;46010;-74
2022/06/29 10:10:48;;;;;;;;;8.25;7.75;;;;;32.45;38.95;100925.84;146614;661;46008;-75
2022/06/29 10:13:45;;;;;;;;;8.00;6.50;;;;;32.46;40.51;100930.25;146638;595;45010;-75
2022/06/29 10:16:53;;;;;;;;;5.00;5.00;;;;;32.54;40.81;100930.88;146639;579;45010;-74
2022/06/29 10:20:07;;;;;;;;;8.50;7.75;;;;;32.54;40.27;100924.63;146643;676;45010;-73
2022/06/29 10:22:59;;;;;;;;;7.00;6.75;;;;;32.54;39.78;100928.19;146641;669;45010;-73
2022/06/29 10:25:51;;;;;;;;;5.50;5.50;;;;;32.52;39.74;100930.03;146639;695;45020;-73
2022/06/29 10:28:43;;;;;;;;;8.50;8.50;;;;;32.50;38.49;100928.37;146642;586;45010;-75
2022/06/29 10:32:08;;;;;;;;;8.50;7.75;;;;;32.49;40.02;100924.78;146639;671;45010;-74
2022/06/29 10:35:06;;;;;;;;;6.50;6.50;;;;;32.45;38.67;100928.53;146639;622;45010;-74
2022/06/29 10:37:58;;;;;;;;;8.75;6.75;;;;;32.45;37.82;100928.53;146638;596;45020;-74
2022/06/29 10:45:03;;;;;;;;;10.00;8.00;;;;;31.56;39.11;100754.66;146637;582;45010;-73
2022/06/29 10:48:20;;;;;;;;;6.75;6.75;;;;;31.46;38.75;100758.56;146642;564;45010;-74
2022/06/29 10:51:16;;;;;;;;;8.25;8.25;;;;;32.39;38.17;100923.34;146639;683;45022;-74
2022/06/29 10:54:28;;;;;;;;;8.00;8.00;;;;;32.45;39.58;100919.59;146641;565;45010;-76
2022/06/29 10:57:20;;;;;;;;;7.00;7.00;;;;;32.58;38.68;100915.53;146638;667;45020;-74
2022/06/29 11:00:19;;;;;;;;;8.50;8.50;;;;;32.74;37.46;100915.81;146635;592;46008;-73
2022/06/29 11:03:17;;;;;;;;;9.00;7.00;;;;;32.82;37.12;100908.34;146640;658;45022;-73
2022/06/29 11:12:29;;;;;;;;;7.00;7.00;;;;;33.14;36.34;100903.56;146624;587;45018;-74
2022/06/29 11:15:44;;;;;;;;;7.25;7.00;;;;;33.26;36.87;100895.00;146612;581;46008;-76
2022/06/29 11:18:41;;;;;;;;;7.25;6.75;;;;;33.34;36.28;100890.22;146612;637;46018;-75
2022/06/29 11:21:33;;;;;;;;;8.00;7.00;;;;;33.46;34.54;100887.03;146613;611;46020;-76
2022/06/29 11:24:25;;;;;;;;;6.75;6.75;;;;;33.49;34.74;100891.37;146614;695;45019;-75
2022/06/29 11:27:40;;;;;;;;;7.67;6.67;;;;;33.36;33.43;100882.94;146617;583;46020;-76
2022/06/29 11:30:34;;;;;;;;;9.50;8.50;;;;;33.29;33.20;100885.00;146612;677;46019;-74
2022/06/29 11:33:40;;;;;;;;;9.00;7.25;;;;;33.20;33.38;100885.38;146614;587;46020;-74
2022/06/29 11:36:35;;;;;;;;;9.25;9.00;;;;;33.17;35.33;100877.44;146606;578;47921;-74
2022/06/29 11:39:27;;;;;;;;;7.50;7.50;;;;;33.18;34.40;100881.00;146614;585;46008;-75
2022/06/29 11:46:29;;;;;;;;;8.50;8.50;;;;;33.19;36.79;100877.41;146613;672;46009;-74
2022/06/29 11:49:42;;;;;;;;;10.00;7.75;;;;;33.24;34.81;100859.25;146610;728;46018;-75
2022/06/29 11:53:13;;;;;;;;;7.25;7.25;;;;;33.31;36.04;100866.16;146617;656;45045;-74
2022/06/29 11:56:27;;;;;;;;;8.25;8.00;;;;;33.35;35.71;100865.94;146614;686;46018;-74
2022/06/29 11:59:20;;;;;;;;;10.00;8.75;;;;;33.38;36.16;100850.66;146613;579;46018;-74
2022/06/29 12:02:19;;;;;;;;;10.50;8.50;;;;;33.23;33.49;100865.56;146608;607;45919;-74
2022/06/29 12:05:30;;;;;;;;;8.25;8.25;;;;;33.00;34.55;100859.34;146615;633;46018;-75
2022/06/29 12:08:31;;;;;;;;;9.75;9.50;;;;;32.82;34.01;100855.53;146606;696;46008;-69
2022/06/29 12:11:24;;;;;;;;;9.00;8.50;;;;;32.81;36.31;100858.28;146611;588;47012;-68
2022/06/29 12:14:17;;;;;;;;;7.75;7.75;;;;;32.82;35.24;100851.97;146611;624;46018;-67
2022/06/29 12:17:10;;;;;;;;;8.75;7.25;;;;;32.88;36.83;100863.34;146613;622;46010;-67
2022/06/29 12:20:02;;;;;;;;;8.25;8.00;;;;;32.98;35.78;100861.19;146609;689;46018;-67
2022/06/29 12:22:54;;;;;;;;;6.25;6.25;;;;;33.08;35.01;100851.81;146615;632;46010;-67
2022/06/29 12:25:47;;;;;;;;;8.50;8.50;;;;;33.10;35.96;100849.09;146616;618;46018;-66
2022/06/29 12:28:39;;;;;;;;;8.25;8.25;;;;;33.16;35.86;100848.84;146613;645;46010;-67
2022/06/29 12:31:32;;;;;;;;;8.00;7.00;;;;;33.19;35.21;100851.41;146609;583;46019;-67
2022/06/29 12:34:24;;;;;;;;;7.25;7.25;;;;;33.19;35.91;100851.41;146616;674;46010;-67
2022/06/29 12:37:18;;;;;;;;;9.50;8.75;;;;;33.14;34.93;100850.69;146612;686;46019;-67
2022/06/29 12:40:11;;;;;;;;;8.75;8.75;;;;;33.09;34.35;100853.59;146614;608;46018;-67
2022/06/29 12:43:03;;;;;;;;;8.00;8.00;;;;;32.91;35.50;100837.31;146611;620;46010;-66
2022/06/29 12:45:56;;;;;;;;;11.00;10.75;;;;;32.78;36.32;100842.28;146610;650;46011;-67
2022/06/29 12:48:48;;;;;;;;;9.25;9.25;;;;;32.50;36.23;100839.78;146611;617;46010;-68
2022/06/29 12:51:41;;;;;;;;;9.00;7.75;;;;;32.42;38.02;100840.91;146614;671;46010;-67
2022/06/29 12:54:33;;;;;;;;;8.50;8.50;;;;;32.52;37.47;100832.53;146605;627;46008;-68
2022/06/29 12:57:26;;;;;;;;;7.75;7.75;;;;;32.63;36.82;100833.00;146612;675;46010;-70
2022/06/29 13:00:19;;;;;;;;;8.00;8.00;;;;;32.69;38.47;100837.28;146614;582;46008;-67
2022/06/29 13:03:11;;;;;;;;;11.50;11.50;;;;;32.66;38.11;100831.06;146609;571;46020;-68
2022/06/29 13:06:03;;;;;;;;;9.75;9.50;;;;;32.61;37.16;100829.50;146608;572;46018;-69
2022/06/29 13:08:55;;;;;;;;;8.25;8.25;;;;;32.65;37.04;100823.97;146613;573;46010;-69
2022/06/29 13:11:47;;;;;;;;;7.00;7.00;;;;;32.74;37.97;100829.91;146609;676;46010;-64
2022/06/29 13:14:39;;;;;;;;;8.25;8.25;;;;;32.79;39.14;100825.22;146616;608;46012;-67
2022/06/29 13:17:31;;;;;;;;;8.00;8.00;;;;;32.86;39.34;100826.72;146610;643;46018;-67
2022/06/29 13:20:24;;;;;;;;;8.50;8.50;;;;;32.86;39.00;100822.22;146607;709;46010;-67
2022/06/29 13:23:17;;;;;;;;;8.25;8.25;;;;;32.93;40.30;100825.56;146612;564;46019;-67
2022/06/29 13:26:09;;;;;;;;;7.25;7.25;;;;;32.98;41.07;100815.53;146614;597;46012;-68
2022/06/29 13:29:01;;;;;;;;;8.25;6.75;;;;;32.96;42.42;100817.38;146611;576;46008;-67
2022/06/29 13:31:53;;;;;;;;;9.00;9.00;;;;;32.95;42.97;100814.75;146612;650;46018;-67
2022/06/29 13:34:46;;;;;;;;;8.25;8.00;;;;;32.95;43.00;100822.81;146613;653;46018;-66
2022/06/29 13:37:38;;;;;;;;;10.75;10.75;;;;;32.89;43.22;100819.41;146607;700;46018;-65
2022/06/29 13:40:30;;;;;;;;;9.00;9.00;;;;;32.88;43.24;100819.50;146616;641;46018;-65
2022/06/29 13:43:22;;;;;;;;;10.50;10.00;;;;;32.88;42.66;100819.50;146610;565;46018;-64
2022/06/29 13:46:14;;;;;;;;;8.67;8.67;;;;;32.90;41.61;100809.56;146606;583;48917;-65
2022/06/29 13:49:07;;;;;;;;;8.00;8.00;;;;;32.94;38.91;100810.31;146611;707;46018;-67
2022/06/29 13:52:00;;;;;;;;;8.50;8.50;;;;;32.96;40.25;100808.44;146612;728;46008;-65
2022/06/29 13:54:52;;;;;;;;;9.25;9.00;;;;;32.95;39.73;100807.56;146607;622;46010;-65
2022/06/29 13:57:44;;;;;;;;;6.50;6.25;;;;;32.96;40.03;100801.28;146614;687;46018;-68
2022/06/29 14:00:38;;;;;;;;;9.75;9.75;;;;;32.96;38.75;100795.00;146611;669;46018;-66